Aberdeen, SD - Weather Station Data
Daily Summary for May 14, 2019 Units:  English    Metric   Both
Daily Weekly Monthly Yearly Custom
  High: Low: Average:
Temperature: 80 °F 52 °F 67 °F
Dew Point: 59 °F 47 °F 52.3 °F
Humidity: 89% 39% 62%
Wind Speed: 8mph 0mph 2.6mph
Wind Gust: 14mph - -
Wind- - East
Pressure: 29.89 in 29.73 in -
Precipitation: 0.00 in    
Historical Graphs
 
 
Tabular Data for May 14, 2019
Time Temperature Dew Point Pressure Wind Wind Speed Wind Gust Humidity Rainfall Rate (Hourly) solar
01:00 60 °F 51 °F 29.74 in SSE 1 mph 5 mph 71% 0.00 in 0 W/m2
01:30 60 °F 51 °F 29.73 in Calm   2 mph 71% 0.00 in 0 W/m2
01:45 59 °F 50 °F 29.73 in SSE 1 mph 2 mph 72% 0.00 in 0 W/m2
02:00 59 °F 50 °F 29.74 in Calm   3 mph 73% 0.00 in 0 W/m2
02:15 58 °F 50 °F 29.74 in SSE 1 mph 3 mph 75% 0.00 in 0 W/m2
02:30 57 °F 49 °F 29.74 in Calm   2 mph 75% 0.00 in 0 W/m2
02:45 57 °F 50 °F 29.74 in Calm   5 mph 77% 0.00 in 0 W/m2
03:00 57 °F 49 °F 29.74 in Calm   1 mph 77% 0.00 in 0 W/m2
03:15 56 °F 49 °F 29.74 in Calm   1 mph 77% 0.00 in 0 W/m2
03:30 55 °F 48 °F 29.74 in Calm   1 mph 78% 0.00 in 0 W/m2
03:45 54 °F 48 °F 29.74 in Calm     79% 0.00 in 0 W/m2
04:00 53 °F 47 °F 29.74 in Calm     80% 0.00 in 0 W/m2
04:15 52 °F 47 °F 29.74 in Calm     81% 0.00 in 0 W/m2
04:30 52 °F 48 °F 29.74 in SSE 1 mph 2 mph 84% 0.00 in 0 W/m2
04:45 52 °F 48 °F 29.75 in Calm     84% 0.00 in 0 W/m2
05:00 52 °F 48 °F 29.75 in SSE 1 mph 2 mph 85% 0.00 in 0 W/m2
05:15 53 °F 49 °F 29.75 in Calm   1 mph 86% 0.00 in 0 W/m2
05:30 53 °F 49 °F 29.76 in SSE 1 mph 1 mph 87% 0.00 in 0 W/m2
05:45 53 °F 50 °F 29.76 in Calm     87% 0.00 in 0 W/m2
06:00 53 °F 49 °F 29.76 in Calm   2 mph 87% 0.00 in 0 W/m2
06:15 53 °F 49 °F 29.76 in Calm   2 mph 87% 0.00 in 0 W/m2
06:30 53 °F 49 °F 29.76 in SSE 1 mph 6 mph 88% 0.00 in 0 W/m2
06:45 53 °F 49 °F 29.77 in South 2 mph 5 mph 88% 0.00 in 0 W/m2
07:00 53 °F 50 °F 29.77 in SSW 3 mph 6 mph 89% 0.00 in 0 W/m2
07:15 53 °F 49 °F 29.77 in SSW 4 mph 4 mph 88% 0.00 in 9 W/m2
07:30 53 °F 50 °F 29.77 in SW 2 mph 6 mph 89% 0.00 in 18 W/m2
07:45 54 °F 51 °F 29.77 in SW 4 mph 7 mph 89% 0.00 in 33 W/m2
08:15 55 °F 52 °F 29.77 in SW 2 mph 3 mph 89% 0.00 in 114 W/m2
08:30 56 °F 52 °F 29.78 in Calm   3 mph 88% 0.00 in 162 W/m2
08:45 57 °F 53 °F 29.78 in SW 2 mph 2 mph 86% 0.00 in 209 W/m2
09:00 58 °F 53 °F 29.79 in SW 1 mph 4 mph 85% 0.00 in 262 W/m2
09:15 59 °F 54 °F 29.79 in SW 1 mph 3 mph 84% 0.00 in 325 W/m2
09:30 60 °F 54 °F 29.79 in SW 3 mph 4 mph 81% 0.00 in 350 W/m2
09:45 61 °F 55 °F 29.79 in Calm   4 mph 80% 0.00 in 362 W/m2
10:00 63 °F 56 °F 29.79 in Calm   3 mph 79% 0.00 in 439 W/m2
10:15 64 °F 56 °F 29.79 in SW 1 mph 4 mph 77% 0.00 in 455 W/m2
10:30 66 °F 58 °F 29.79 in Calm   3 mph 75% 0.00 in 524 W/m2
10:45 67 °F 58 °F 29.80 in SW 2 mph 4 mph 72% 0.00 in 529 W/m2
11:00 68 °F 59 °F 29.80 in Calm   3 mph 72% 0.00 in 596 W/m2
11:15 70 °F 59 °F 29.80 in NNW 3 mph 5 mph 69% 0.00 in 635 W/m2
11:30 70 °F 59 °F 29.80 in North 2 mph 6 mph 67% 0.00 in 668 W/m2
11:45 70 °F 58 °F 29.80 in NNE 3 mph 8 mph 66% 0.00 in 698 W/m2
12:00 72 °F 58 °F 29.80 in North 4 mph 10 mph 62% 0.00 in 733 W/m2
12:15 72 °F 58 °F 29.80 in Calm   9 mph 62% 0.00 in 619 W/m2
12:30 72 °F 57 °F 29.81 in NNE 3 mph 9 mph 61% 0.00 in 780 W/m2
12:45 72 °F 57 °F 29.81 in Calm   14 mph 59% 0.00 in 802 W/m2
13:00 73 °F 58 °F 29.81 in NE 5 mph 9 mph 59% 0.00 in 833 W/m2
13:15 73 °F 57 °F 29.82 in North 7 mph 9 mph 56% 0.00 in 844 W/m2
13:30 74 °F 56 °F 29.83 in ENE 4 mph 13 mph 53% 0.00 in 861 W/m2
13:45 75 °F 56 °F 29.83 in ESE 1 mph 9 mph 52% 0.00 in 872 W/m2
14:00 76 °F 57 °F 29.82 in NNE 4 mph 11 mph 52% 0.00 in 872 W/m2
14:15 75 °F 55 °F 29.82 in NNE 4 mph 10 mph 50% 0.00 in 879 W/m2
14:30 76 °F 55 °F 29.82 in NE 4 mph 10 mph 49% 0.00 in 881 W/m2
14:45 76 °F 55 °F 29.82 in NNE 1 mph 11 mph 48% 0.00 in 877 W/m2
15:00 77 °F 55 °F 29.82 in ENE 1 mph 6 mph 47% 0.00 in 912 W/m2
15:15 77 °F 55 °F 29.82 in NE 3 mph 12 mph 46% 0.00 in 867 W/m2
15:30 78 °F 55 °F 29.82 in NNW 8 mph 10 mph 46% 0.00 in 882 W/m2
15:45 78 °F 54 °F 29.82 in ENE 2 mph 11 mph 44% 0.00 in 218 W/m2
16:00 78 °F 56 °F 29.81 in NNE 4 mph 10 mph 46% 0.00 in 838 W/m2
16:15 78 °F 54 °F 29.80 in NE 5 mph 10 mph 44% 0.00 in 793 W/m2
16:30 79 °F 54 °F 29.80 in East 2 mph 6 mph 42% 0.00 in 780 W/m2
16:45 79 °F 55 °F 29.80 in NNE 8 mph 13 mph 43% 0.00 in 754 W/m2
17:00 80 °F 55 °F 29.80 in NNE 3 mph 9 mph 42% 0.00 in 722 W/m2
17:15 80 °F 54 °F 29.80 in NE 3 mph 11 mph 40% 0.00 in 684 W/m2
17:30 79 °F 53 °F 29.80 in NNE 3 mph 11 mph 40% 0.00 in 671 W/m2
17:45 80 °F 53 °F 29.80 in ENE 7 mph 10 mph 39% 0.00 in 684 W/m2
18:00 79 °F 52 °F 29.80 in NE 7 mph 10 mph 39% 0.00 in 113 W/m2
18:15 79 °F 53 °F 29.80 in NE 5 mph 12 mph 40% 0.00 in 100 W/m2
18:30 79 °F 53 °F 29.80 in NNE 8 mph 12 mph 41% 0.00 in 529 W/m2
18:45 80 °F 53 °F 29.80 in NE 6 mph 13 mph 40% 0.00 in 476 W/m2
19:00 80 °F 52 °F 29.81 in North 3 mph 13 mph 39% 0.00 in 362 W/m2
19:15 79 °F 52 °F 29.82 in NNE 6 mph 12 mph 39% 0.00 in 287 W/m2
19:30 79 °F 53 °F 29.81 in NNE 5 mph 10 mph 40% 0.00 in 295 W/m2
19:45 79 °F 52 °F 29.81 in NNE 5 mph 12 mph 40% 0.00 in 221 W/m2
20:00 78 °F 52 °F 29.81 in NE 4 mph 9 mph 41% 0.00 in 62 W/m2
20:15 78 °F 51 °F 29.82 in NE 4 mph 10 mph 40% 0.00 in 58 W/m2
20:30 77 °F 51 °F 29.82 in NNE 5 mph 10 mph 40% 0.00 in 54 W/m2
20:45 77 °F 50 °F 29.82 in NNE 6 mph 11 mph 40% 0.00 in 44 W/m2
21:00 76 °F 51 °F 29.83 in North 4 mph 9 mph 42% 0.00 in 42 W/m2
21:15 75 °F 52 °F 29.83 in NNE 3 mph 12 mph 45% 0.00 in 37 W/m2
21:30 74 °F 52 °F 29.83 in NE 3 mph 10 mph 47% 0.00 in 23 W/m2
21:45 73 °F 53 °F 29.83 in NNE 5 mph 8 mph 49% 0.00 in 12 W/m2
22:00 72 °F 52 °F 29.84 in NNE 2 mph 11 mph 50% 0.00 in 0 W/m2
22:15 71 °F 50 °F 29.85 in NNE 5 mph 11 mph 49% 0.00 in 0 W/m2
22:30 70 °F 49 °F 29.86 in NE 6 mph 12 mph 48% 0.00 in 0 W/m2
22:45 69 °F 49 °F 29.86 in NE 3 mph 10 mph 49% 0.00 in 0 W/m2
23:00 69 °F 50 °F 29.87 in NE 2 mph 5 mph 51% 0.00 in 0 W/m2
23:15 68 °F 50 °F 29.88 in NE 3 mph 6 mph 53% 0.00 in 0 W/m2
23:30 67 °F 49 °F 29.88 in Calm   9 mph 54% 0.00 in 0 W/m2
23:45 66 °F 49 °F 29.88 in ENE 2 mph 6 mph 55% 0.00 in 0 W/m2
00:00 66 °F 49 °F 29.89 in NE 4 mph 11 mph 55% 0.00 in 0 W/m2
00:15 65 °F 49 °F 29.88 in NE 6 mph 9 mph 57% 0.00 in 0 W/m2
00:30 64 °F 49 °F 29.89 in NE 2 mph 9 mph 59% 0.00 in 0 W/m2
00:45 63 °F 48 °F 29.89 in NE 3 mph 7 mph 59% 0.00 in 0 W/m2
Compliments of Weather Underground - 2 mb